Time;durP1;ratioP1;P1;durP2;ratioP2;P2;SDS_P1;SDS_P2;PMS_P1;PMS_P2;Temp;Humidity;BMP_temperature;BMP_pressure;BME280_temperature;BME280_humidity;BME280_pressure;Samples;Min_cycle;Max_cycle;Signal;HPM_P1;HPM_P2
2023/12/08 00:00:07;;;;;;;99.30;55.07;;;;;;;3.82;67.97;100606.47;4972757;28;97602;-75
2023/12/08 00:02:33;;;;;;;106.30;59.50;;;;;;;3.85;68.06;100609.06;4953132;28;100872;-75
2023/12/08 00:04:59;;;;;;;101.93;57.57;;;;;;;3.91;67.69;100602.13;4972184;28;97169;-74
2023/12/08 00:07:24;;;;;;;104.80;57.07;;;;;;;3.91;68.04;100599.53;4956873;28;96841;-75
2023/12/08 00:09:50;;;;;;;98.50;55.57;;;;;;;3.81;67.70;100596.06;4971968;28;101311;-75
2023/12/08 00:12:15;;;;;;;100.13;60.03;;;;;;;3.78;67.90;100598.69;4973216;28;98539;-75
2023/12/08 00:14:41;;;;;;;109.23;58.83;;;;;;;3.69;67.90;100593.50;4956652;28;96746;-75
2023/12/08 00:17:07;;;;;;;114.50;62.30;;;;;;;3.68;67.99;100600.44;4963882;28;96911;-76
2023/12/08 00:19:33;;;;;;;106.73;56.40;;;;;;;3.67;67.88;100595.28;4972489;28;97582;-75
2023/12/08 00:21:58;;;;;;;94.83;55.43;;;;;;;3.69;68.37;100591.78;4956275;28;101273;-75
2023/12/08 00:24:24;;;;;;;104.63;58.13;;;;;;;3.67;67.68;100582.28;4955499;28;97133;-75
2023/12/08 00:26:50;;;;;;;98.77;56.77;;;;;;;3.71;68.10;100597.84;4956626;28;96791;-74
2023/12/08 00:29:19;;;;;;;104.20;56.27;;;;;;;3.68;67.86;100591.78;4955470;28;101325;-74
2023/12/08 00:31:45;;;;;;;100.30;56.67;;;;;;;3.51;68.42;100584.88;4956721;28;101378;-74
2023/12/08 00:34:11;;;;;;;107.40;58.17;;;;;;;3.50;68.42;100590.94;4972259;28;96921;-75
2023/12/08 00:36:36;;;;;;;110.10;58.00;;;;;;;3.26;69.09;100567.59;4983123;28;96917;-75
2023/12/08 00:39:02;;;;;;;110.50;58.20;;;;;;;3.34;69.17;100577.09;4955541;28;101607;-75
2023/12/08 00:41:27;;;;;;;113.07;59.47;;;;;;;3.12;69.13;100565.00;4956676;28;101502;-75
2023/12/08 00:43:53;;;;;;;107.17;58.20;;;;;;;3.17;69.43;100571.03;4952717;28;96797;-75
2023/12/08 00:46:18;;;;;;;105.00;57.03;;;;;;;3.28;69.26;100587.47;4972402;28;97034;-75
2023/12/08 00:48:44;;;;;;;108.73;59.60;;;;;;;3.31;68.65;100586.63;4950993;28;101707;-74
2023/12/08 00:51:12;;;;;;;100.83;55.90;;;;;;;3.09;69.46;100575.41;4952941;28;100855;-74
2023/12/08 00:53:39;;;;;;;100.50;55.70;;;;;;;3.30;68.86;100577.97;4971938;28;98029;-75
2023/12/08 00:56:05;;;;;;;101.43;56.60;;;;;;;3.13;68.97;100567.59;4955815;28;97416;-74
2023/12/08 00:58:31;;;;;;;108.87;59.50;;;;;;;3.34;68.88;100587.47;4955241;28;101122;-74
2023/12/08 01:00:57;;;;;;;106.60;57.13;;;;;;;3.37;68.42;100595.28;4955802;28;101013;-75
2023/12/08 01:03:22;;;;;;;106.83;57.50;;;;;;;3.45;68.27;100594.41;4974108;28;97853;-77
2023/12/08 01:05:48;;;;;;;101.93;58.90;;;;;;;3.45;68.49;100597.88;4942009;28;96863;-75
2023/12/08 01:08:13;;;;;;;103.53;59.03;;;;;;;3.44;68.05;100600.47;4975624;28;99426;-75
2023/12/08 01:10:39;;;;;;;103.87;59.03;;;;;;;3.51;68.11;100599.59;4941807;28;101208;-75
2023/12/08 01:13:04;;;;;;;104.87;59.53;;;;;;;3.51;67.73;100602.19;4975626;28;96904;-75
2023/12/08 01:15:30;;;;;;;104.47;58.80;;;;;;;3.39;67.87;100577.97;4958355;28;97326;-76
2023/12/08 01:17:55;;;;;;;102.10;58.17;;;;;;;3.45;67.39;100589.22;4973805;28;97511;-75
2023/12/08 01:20:21;;;;;;;110.17;57.67;;;;;;;3.53;67.76;100595.28;4943841;28;101656;-76
2023/12/08 01:22:46;;;;;;;108.80;57.37;;;;;;;3.48;67.47;100586.63;4957947;28;96772;-75
2023/12/08 01:25:12;;;;;;;103.93;59.20;;;;;;;3.43;67.65;100577.97;4959433;28;96930;-74
2023/12/08 01:27:38;;;;;;;117.03;60.87;;;;;;;3.28;68.10;100595.28;4971480;28;97447;-74
2023/12/08 01:30:05;;;;;;;109.70;57.90;;;;;;;3.25;68.26;100587.47;4938226;28;102100;-75
2023/12/08 01:32:30;;;;;;;119.57;61.17;;;;;;;3.24;67.94;100584.91;4955523;28;97310;-75
2023/12/08 01:34:56;;;;;;;109.80;60.67;;;;;;;3.20;68.10;100584.06;4954962;28;96992;-74
2023/12/08 01:37:22;;;;;;;113.13;63.70;;;;;;;3.13;68.51;100577.97;4954732;28;101374;-76
2023/12/08 01:39:48;;;;;;;110.13;57.97;;;;;;;3.23;68.33;100577.97;4979515;28;101027;-75
2023/12/08 01:42:13;;;;;;;109.53;60.73;;;;;;;3.34;68.02;100577.09;4952445;28;96757;-76
2023/12/08 01:44:39;;;;;;;106.30;55.93;;;;;;;3.35;68.36;100567.63;4967297;28;97163;-75
2023/12/08 01:47:06;;;;;;;109.67;59.77;;;;;;;3.27;68.25;100577.97;4951805;28;101095;-75
2023/12/08 01:49:33;;;;;;;117.47;60.33;;;;;;;3.11;68.30;100574.53;4953109;28;101847;-74
2023/12/08 01:51:59;;;;;;;107.73;58.53;;;;;;;3.24;68.58;100571.94;4955857;28;97965;-76
2023/12/08 01:54:24;;;;;;;115.07;59.80;;;;;;;3.32;68.42;100573.66;4938591;28;97179;-76
2023/12/08 01:56:50;;;;;;;103.47;55.57;;;;;;;3.37;68.24;100560.66;4939012;28;100872;-76
2023/12/08 01:59:15;;;;;;;111.30;56.90;;;;;;;3.21;68.40;100566.75;4970402;28;97182;-76
2023/12/08 02:01:41;;;;;;;109.93;57.57;;;;;;;3.13;68.39;100539.06;4938537;28;96897;-75
2023/12/08 02:04:07;;;;;;;112.00;59.43;;;;;;;3.11;68.87;100560.66;4954704;28;96806;-74
2023/12/08 02:06:33;;;;;;;113.30;58.07;;;;;;;2.97;69.42;100537.34;4954846;28;101402;-74
2023/12/08 02:08:59;;;;;;;99.73;54.27;;;;;;;2.97;69.48;100552.91;4970279;28;97568;-73
2023/12/08 02:11:24;;;;;;;100.97;56.50;;;;;;;3.11;69.11;100548.59;4972003;28;96756;-75
2023/12/08 02:13:50;;;;;;;104.00;54.37;;;;;;;3.15;68.98;100542.53;4963274;28;97270;-74
2023/12/08 02:16:33;;;;;;;100.73;54.47;;;;;;;3.10;69.27;100548.56;4954704;28;102566;-75
2023/12/08 02:19:00;;;;;;;101.07;53.43;;;;;;;3.11;68.91;100546.00;4938316;28;99469;-75
2023/12/08 02:21:25;;;;;;;104.30;54.67;;;;;;;3.15;69.13;100537.34;4955587;28;97126;-75
2023/12/08 02:23:51;;;;;;;109.40;57.57;;;;;;;3.02;69.21;100525.22;4970604;28;96935;-76
2023/12/08 02:26:18;;;;;;;108.07;55.43;;;;;;;3.10;69.40;100533.00;4937893;28;101524;-75
2023/12/08 02:28:44;;;;;;;109.27;58.07;;;;;;;3.08;69.41;100530.41;4953474;28;101318;-75
2023/12/08 02:31:13;;;;;;;106.30;56.97;;;;;;;2.99;68.99;100517.44;4946860;28;96725;-74
2023/12/08 02:33:43;;;;;;;100.97;53.13;;;;;;;3.15;69.27;100524.38;4980988;28;97057;-75
2023/12/08 02:36:09;;;;;;;98.97;55.03;;;;;;;3.12;69.18;100520.91;4954768;28;98278;-74
2023/12/08 02:38:35;;;;;;;105.80;53.63;;;;;;;3.02;69.48;100521.78;4970623;28;98489;-75
2023/12/08 02:41:01;;;;;;;109.67;55.80;;;;;;;3.06;69.20;100520.91;4971270;28;96835;-75
2023/12/08 02:43:27;;;;;;;111.83;56.10;;;;;;;2.98;69.45;100507.94;4955013;28;96973;-75
2023/12/08 02:45:52;;;;;;;106.43;55.80;;;;;;;2.84;70.00;100505.34;4956202;28;98007;-75
2023/12/08 02:48:18;;;;;;;111.60;56.47;;;;;;;2.89;69.80;100500.16;4950043;28;97998;-75
2023/12/08 02:50:44;;;;;;;116.67;59.67;;;;;;;2.94;69.77;100512.28;4954336;28;96796;-74
2023/12/08 02:53:09;;;;;;;109.63;56.37;;;;;;;3.03;69.74;100511.41;4963874;28;98395;-75
2023/12/08 02:55:35;;;;;;;116.77;57.10;;;;;;;2.91;69.74;100509.69;4935460;28;100330;-77
2023/12/08 02:58:00;;;;;;;118.80;55.83;;;;;;;2.93;69.72;100497.56;4952534;28;101092;-75
2023/12/08 03:00:26;;;;;;;112.93;55.03;;;;;;;2.88;69.78;100490.63;4951650;28;96757;-75
2023/12/08 03:02:51;;;;;;;113.30;53.13;;;;;;;2.75;69.86;100475.97;4953863;28;96878;-75
2023/12/08 03:05:17;;;;;;;107.20;53.17;;;;;;;2.70;70.28;100486.31;4970874;28;97648;-74
2023/12/08 03:07:43;;;;;;;119.13;57.50;;;;;;;2.70;69.90;100483.72;4950616;28;101416;-75
2023/12/08 03:10:09;;;;;;;120.13;55.67;;;;;;;2.62;70.17;100475.97;4950526;28;96826;-74
2023/12/08 03:12:34;;;;;;;121.83;56.57;;;;;;;2.70;70.43;100484.59;4957397;28;97362;-75
2023/12/08 03:15:00;;;;;;;126.27;54.30;;;;;;;2.58;70.54;100471.63;4967774;28;97503;-74
2023/12/08 03:17:25;;;;;;;128.43;56.70;;;;;;;2.42;71.04;100470.75;4950278;28;101723;-75
2023/12/08 03:19:51;;;;;;;120.20;56.23;;;;;;;2.41;70.93;100455.19;4972894;28;96769;-76
2023/12/08 03:22:16;;;;;;;115.80;54.13;;;;;;;2.45;70.99;100475.06;4972394;28;96802;-75
2023/12/08 03:24:42;;;;;;;109.50;52.70;;;;;;;2.57;70.63;100472.50;4970147;28;97550;-74
2023/12/08 03:27:07;;;;;;;129.83;52.17;;;;;;;2.29;71.06;100447.41;4953658;28;100919;-75
2023/12/08 03:29:33;;;;;;;108.07;51.87;;;;;;;2.45;71.54;100467.31;4938730;28;97251;-75
2023/12/08 03:31:58;;;;;;;114.63;53.83;;;;;;;2.44;70.93;100468.16;4958112;28;96882;-75
2023/12/08 03:34:24;;;;;;;109.47;48.67;;;;;;;2.32;70.96;100445.69;4953259;28;101033;-75
2023/12/08 03:36:49;;;;;;;108.07;49.70;;;;;;;2.32;71.08;100453.44;4965455;28;101097;-74
2023/12/08 03:39:15;;;;;;;103.90;47.53;;;;;;;2.30;71.24;100446.53;4956147;28;96837;-74
2023/12/08 03:41:40;;;;;;;103.27;49.77;;;;;;;2.28;71.24;100467.28;4974396;28;97338;-74
2023/12/08 03:44:06;;;;;;;110.03;47.47;;;;;;;2.28;71.81;100469.00;4970987;28;98001;-75
2023/12/08 03:46:31;;;;;;;105.37;45.60;;;;;;;2.17;71.57;100464.66;4970099;28;101135;-75
2023/12/08 03:48:57;;;;;;;105.00;47.47;;;;;;;2.30;71.51;100478.50;4972527;28;97168;-74
2023/12/08 03:51:22;;;;;;;99.20;46.67;;;;;;;2.24;71.37;100470.69;4974077;28;96854;-74
2023/12/08 03:53:48;;;;;;;103.63;46.43;;;;;;;2.25;71.71;100481.06;4956379;28;101505;-74
2023/12/08 03:56:13;;;;;;;99.50;46.93;;;;;;;2.37;71.29;100456.91;4940939;28;100943;-74
2023/12/08 03:58:39;;;;;;;96.50;45.67;;;;;;;2.43;71.36;100463.84;4973182;28;97894;-74
2023/12/08 04:01:05;;;;;;;100.77;48.80;;;;;;;2.61;71.14;100469.03;4973739;28;96797;-74
2023/12/08 04:03:30;;;;;;;106.33;48.03;;;;;;;2.57;70.39;100466.44;4971911;28;100103;-74
2023/12/08 04:05:56;;;;;;;106.00;45.83;;;;;;;2.25;71.18;100444.81;4974675;28;97345;-74
2023/12/08 04:08:21;;;;;;;96.47;43.90;;;;;;;2.40;71.18;100461.25;4956384;28;97563;-75
2023/12/08 04:10:47;;;;;;;96.30;45.93;;;;;;;2.40;71.24;100466.44;4973447;28;96721;-75
2023/12/08 04:13:12;;;;;;;99.40;43.80;;;;;;;2.48;71.32;100460.38;4940101;28;101339;-74
2023/12/08 04:15:38;;;;;;;100.83;46.40;;;;;;;2.43;71.10;100454.34;4972822;28;98157;-74
2023/12/08 04:18:04;;;;;;;97.67;46.27;;;;;;;2.35;71.10;100456.03;4955845;28;97329;-74
2023/12/08 04:20:30;;;;;;;96.33;47.13;;;;;;;2.42;71.53;100455.22;4940858;28;97103;-74
2023/12/08 04:22:56;;;;;;;103.70;48.30;;;;;;;2.41;71.63;100448.28;4972792;28;97655;-74
2023/12/08 04:25:21;;;;;;;99.83;47.00;;;;;;;2.47;70.63;100431.88;4973129;28;97664;-75
2023/12/08 04:27:47;;;;;;;108.37;45.47;;;;;;;2.41;71.05;100429.28;4955475;28;97191;-75
2023/12/08 04:30:13;;;;;;;107.37;46.33;;;;;;;2.46;71.19;100425.81;4940532;28;96888;-74
2023/12/08 04:32:38;;;;;;;99.13;46.67;;;;;;;2.44;71.46;100425.00;4955446;28;101073;-74
2023/12/08 04:35:04;;;;;;;94.37;45.00;;;;;;;2.67;70.99;100430.16;4956145;28;101613;-73
2023/12/08 04:37:29;;;;;;;93.23;44.13;;;;;;;2.49;71.16;100427.56;4956195;28;96767;-74
2023/12/08 04:39:55;;;;;;;86.07;42.43;;;;;;;2.40;71.07;100425.81;4953047;28;97323;-73
2023/12/08 04:42:20;;;;;;;91.00;43.13;;;;;;;2.54;70.92;100445.72;4944297;28;101080;-78
2023/12/08 04:44:46;;;;;;;94.53;41.73;;;;;;;2.69;70.63;100443.97;4970669;28;98034;-74
2023/12/08 04:47:11;;;;;;;91.10;43.37;;;;;;;2.67;70.51;100437.94;4953048;28;96939;-73
2023/12/08 04:49:37;;;;;;;91.97;42.77;;;;;;;2.63;70.62;100436.22;4955022;28;96877;-73
2023/12/08 04:52:03;;;;;;;84.13;40.23;;;;;;;2.66;70.36;100433.63;4952785;28;101617;-74
2023/12/08 04:54:28;;;;;;;92.00;43.10;;;;;;;2.71;70.21;100436.22;4968499;28;101112;-73
2023/12/08 04:56:54;;;;;;;89.83;41.07;;;;;;;2.43;70.60;100430.16;4967440;28;96781;-73
2023/12/08 04:59:19;;;;;;;84.73;41.53;;;;;;;2.54;70.54;100431.03;4968458;28;97154;-73
2023/12/08 05:01:52;;;;;;;79.10;38.17;;;;;;;2.48;70.98;100421.53;4939350;28;101598;-73
2023/12/08 05:04:19;;;;;;;86.70;39.70;;;;;;;2.53;70.51;100413.75;4971703;28;97695;-74
2023/12/08 05:06:45;;;;;;;85.03;39.03;;;;;;;2.45;70.88;100413.75;4972788;28;96697;-75
2023/12/08 05:09:11;;;;;;;89.00;39.97;;;;;;;2.35;70.86;100416.31;4958697;28;97203;-74
2023/12/08 05:11:36;;;;;;;86.57;39.83;;;;;;;2.27;70.73;100413.75;4957338;28;97776;-74
2023/12/08 05:14:02;;;;;;;81.37;39.43;;;;;;;2.22;71.59;100397.31;4954962;28;101385;-74
2023/12/08 05:16:29;;;;;;;93.47;41.57;;;;;;;2.32;70.61;100419.78;4952481;28;96835;-75
2023/12/08 05:18:54;;;;;;;96.17;42.20;;;;;;;2.11;71.79;100406.78;4969948;28;97292;-75
2023/12/08 05:21:20;;;;;;;97.23;41.53;;;;;;;1.75;72.27;100421.38;4971685;28;97736;-75
2023/12/08 05:23:45;;;;;;;107.20;41.73;;;;;;;1.56;73.48;100418.69;4973936;28;101494;-75
2023/12/08 05:26:11;;;;;;;131.97;41.87;;;;;;;1.42;74.02;100422.94;4957397;28;96842;-70
2023/12/08 05:28:36;;;;;;;85.27;36.87;;;;;;;1.46;73.25;100405.75;4964646;28;97047;-70
2023/12/08 05:31:04;;;;;;;97.40;40.20;;;;;;;1.51;73.56;100432.47;4987168;28;98544;-70
2023/12/08 05:33:29;;;;;;;82.43;39.73;;;;;;;1.53;73.73;100441.13;4964583;28;97316;-70
2023/12/08 05:35:55;;;;;;;81.17;36.83;;;;;;;1.72;73.24;100442.94;4953848;28;97384;-69
2023/12/08 05:38:21;;;;;;;76.63;35.30;;;;;;;1.73;72.93;100436.03;4964310;28;98264;-71
2023/12/08 05:40:46;;;;;;;89.60;39.07;;;;;;;1.77;72.21;100443.78;4962169;28;101217;-71
2023/12/08 05:43:12;;;;;;;82.90;38.57;;;;;;;1.74;72.47;100433.44;4965676;28;102068;-70
2023/12/08 05:45:37;;;;;;;101.37;34.80;;;;;;;1.53;73.28;100423.00;4967507;28;97439;-71
2023/12/08 05:48:03;;;;;;;98.03;37.00;;;;;;;1.53;72.50;100431.63;4963936;28;97292;-76
2023/12/08 05:50:29;;;;;;;96.10;37.53;;;;;;;1.30;73.37;100435.81;4968037;28;98190;-71
2023/12/08 05:52:54;;;;;;;88.63;36.20;;;;;;;1.30;73.34;100441.84;4965705;28;100695;-72
2023/12/08 05:55:20;;;;;;;101.03;35.70;;;;;;;1.08;73.67;100433.13;4965951;28;96852;-71
2023/12/08 05:57:45;;;;;;;72.17;32.17;;;;;;;1.26;73.45;100449.59;4967024;28;97212;-71
2023/12/08 06:00:11;;;;;;;105.87;33.47;;;;;;;1.02;73.85;100455.47;4964103;28;100962;-71
2023/12/08 06:02:39;;;;;;;87.63;35.97;;;;;;;1.03;73.71;100452.03;4962820;28;100883;-74
2023/12/08 06:05:05;;;;;;;80.53;37.33;;;;;;;1.11;73.88;100448.66;4954156;28;97454;-74
2023/12/08 06:07:31;;;;;;;73.93;31.97;;;;;;;1.19;73.56;100422.81;4941651;28;97068;-78
2023/12/08 06:09:56;;;;;;;66.33;33.03;;;;;;;1.26;73.08;100436.69;4949817;28;101368;-71
2023/12/08 06:12:22;;;;;;;110.67;34.60;;;;;;;0.93;73.90;100429.56;4938273;28;101122;-71
2023/12/08 06:14:47;;;;;;;75.23;35.50;;;;;;;0.76;74.65;100419.13;4954803;28;97298;-73
2023/12/08 06:17:13;;;;;;;72.87;34.60;;;;;;;0.85;74.52;100422.63;4951972;28;96935;-75
2023/12/08 06:19:39;;;;;;;70.93;35.97;;;;;;;0.99;74.12;100414.09;4950242;28;101588;-74
2023/12/08 06:22:04;;;;;;;94.50;38.43;;;;;;;1.08;73.89;100419.34;4969538;28;97307;-74
2023/12/08 06:24:30;;;;;;;90.20;38.30;;;;;;;1.07;73.41;100410.69;4951551;28;97232;-76
2023/12/08 06:26:55;;;;;;;94.60;38.47;;;;;;;1.09;73.67;100413.28;4965981;28;97155;-74
2023/12/08 06:29:21;;;;;;;94.27;41.90;;;;;;;1.07;73.85;100404.66;4953436;28;97432;-79
2023/12/08 06:31:46;;;;;;;102.13;41.23;;;;;;;0.93;74.01;100404.56;4951085;28;101661;-74
2023/12/08 06:34:12;;;;;;;121.37;44.93;;;;;;;0.95;74.42;100409.75;4963695;28;96746;-74
2023/12/08 06:36:45;;;;;;;130.03;43.80;;;;;;;0.94;74.55;100398.56;4938622;28;97009;-74
2023/12/08 06:39:12;;;;;;;182.00;43.23;;;;;;;0.78;74.85;100417.38;4953570;28;101469;-74
2023/12/08 06:41:38;;;;;;;119.57;43.43;;;;;;;0.65;75.61;100398.34;4958175;28;100729;-78
2023/12/08 06:44:03;;;;;;;129.37;44.97;;;;;;;0.51;76.51;100423.22;4954951;28;96755;-79
2023/12/08 06:46:29;;;;;;;124.80;45.13;;;;;;;0.55;76.11;100419.78;4961042;28;96885;-73
2023/12/08 06:48:54;;;;;;;107.13;43.93;;;;;;;0.52;76.31;100422.34;4970942;28;97616;-73
2023/12/08 06:51:20;;;;;;;108.90;46.07;;;;;;;0.66;76.73;100420.75;4939901;28;100499;-72
2023/12/08 06:53:45;;;;;;;132.20;49.23;;;;;;;0.67;76.39;100420.78;4969498;28;97295;-71
2023/12/08 06:56:11;;;;;;;116.20;46.53;;;;;;;0.72;76.74;100414.75;4969532;28;97407;-74
2023/12/08 06:58:37;;;;;;;145.00;49.90;;;;;;;0.70;76.87;100401.84;4959907;28;97596;-72
2023/12/08 07:01:02;;;;;;;111.87;45.53;;;;;;;0.77;76.61;100393.28;4965135;28;101268;-72
2023/12/08 07:03:28;;;;;;;108.20;44.87;;;;;;;0.89;75.93;100382.16;4967980;28;99212;-71
2023/12/08 07:05:53;;;;;;;117.17;43.93;;;;;;;0.76;76.49;100378.63;4954822;28;98877;-72
2023/12/08 07:08:19;;;;;;;112.13;43.83;;;;;;;0.85;76.07;100373.53;4962981;28;98203;-71
2023/12/08 07:10:44;;;;;;;109.57;43.80;;;;;;;0.97;76.20;100385.66;4945536;28;101501;-71
2023/12/08 07:13:10;;;;;;;106.40;43.00;;;;;;;1.09;75.84;100390.03;4973047;28;97663;-71
2023/12/08 07:15:35;;;;;;;96.07;40.60;;;;;;;1.02;75.51;100383.06;4951479;28;100183;-73
2023/12/08 07:18:01;;;;;;;119.97;44.80;;;;;;;0.95;76.00;100387.34;4960742;28;97570;-72
2023/12/08 07:20:27;;;;;;;120.87;43.07;;;;;;;0.91;75.96;100383.03;4962340;28;97533;-74
2023/12/08 07:22:53;;;;;;;101.20;44.87;;;;;;;1.01;75.78;100386.53;4976805;28;96771;-72
2023/12/08 07:25:18;;;;;;;111.77;46.23;;;;;;;1.17;74.97;100403.00;4974699;28;97388;-71
2023/12/08 07:27:44;;;;;;;105.27;43.60;;;;;;;1.18;74.55;100397.84;4973057;28;97372;-71
2023/12/08 07:30:10;;;;;;;107.53;45.47;;;;;;;0.93;75.66;100394.22;4962731;28;101097;-72
2023/12/08 07:32:35;;;;;;;123.40;50.40;;;;;;;0.93;75.75;100390.78;4970563;28;97520;-74
2023/12/08 07:35:01;;;;;;;121.23;49.13;;;;;;;0.98;75.73;100395.13;4960033;28;96899;-72
2023/12/08 07:37:26;;;;;;;111.80;47.53;;;;;;;0.87;76.00;100389.03;4974661;28;97376;-72
2023/12/08 07:39:52;;;;;;;130.53;45.97;;;;;;;0.82;76.76;100407.09;4993898;28;101443;-72
2023/12/08 07:42:17;;;;;;;113.67;45.37;;;;;;;0.86;76.66;100400.22;4977589;28;97462;-71
2023/12/08 07:44:45;;;;;;;124.87;47.93;;;;;;;0.82;76.90;100394.19;4966174;28;96887;-72
2023/12/08 07:47:10;;;;;;;123.27;52.10;;;;;;;0.89;76.34;100372.66;4960976;28;97346;-72
2023/12/08 07:49:35;;;;;;;116.97;51.80;;;;;;;1.03;76.45;100390.84;4960211;28;101187;-72
2023/12/08 07:52:01;;;;;;;128.23;52.40;;;;;;;0.97;76.07;100387.38;4943754;28;96876;-72
2023/12/08 07:54:31;;;;;;;122.73;52.33;;;;;;;0.86;76.97;100372.66;4962014;28;96819;-72
2023/12/08 07:56:58;;;;;;;127.90;50.87;;;;;;;1.08;76.31;100385.72;4948376;28;98418;-71
2023/12/08 07:59:23;;;;;;;128.70;53.13;;;;;;;1.00;76.59;100382.22;4975107;28;97359;-73
2023/12/08 08:01:49;;;;;;;145.67;53.47;;;;;;;0.78;76.60;100383.78;4967606;28;97424;-73
2023/12/08 08:04:14;;;;;;;136.30;52.70;;;;;;;0.90;76.74;100378.69;4960163;28;96841;-72
2023/12/08 08:06:40;;;;;;;133.67;54.23;;;;;;;0.88;77.39;100386.47;4960802;28;101404;-75
2023/12/08 08:09:07;;;;;;;142.63;55.50;;;;;;;0.84;77.38;100384.72;4974274;28;97358;-73
2023/12/08 08:11:32;;;;;;;138.73;55.80;;;;;;;0.97;76.79;100388.25;4954144;28;96912;-75
2023/12/08 08:13:58;;;;;;;152.70;59.33;;;;;;;0.89;77.20;100380.44;4952358;28;96792;-71
2023/12/08 08:16:23;;;;;;;148.30;58.47;;;;;;;0.95;76.96;100376.16;4963683;28;101062;-81
2023/12/08 08:18:49;;;;;;;148.87;59.50;;;;;;;0.95;77.06;100373.56;4957635;28;102423;-79
2023/12/08 08:21:15;;;;;;;141.50;56.87;;;;;;;0.98;76.53;100391.69;4985648;28;96834;-79
2023/12/08 08:23:41;;;;;;;159.97;57.10;;;;;;;0.83;76.76;100400.22;4959944;28;97456;-79
2023/12/08 08:26:06;;;;;;;181.97;68.20;;;;;;;0.78;77.12;100402.75;4934920;28;102079;-82
2023/12/08 08:28:32;;;;;;;144.37;54.93;;;;;;;0.81;77.46;100409.66;4939950;28;100154;-80
2023/12/08 08:30:57;;;;;;;144.57;52.17;;;;;;;0.97;77.18;100414.09;4958886;28;97313;-81
2023/12/08 08:33:23;;;;;;;159.77;64.33;;;;;;;1.00;76.76;100421.88;4977743;28;98045;-82
2023/12/08 08:35:48;;;;;;;165.87;59.93;;;;;;;0.82;77.21;100414.84;4954090;28;101870;-82
2023/12/08 08:38:14;;;;;;;167.83;64.73;;;;;;;0.79;77.74;100422.59;4981867;28;100493;-79
2023/12/08 08:40:39;;;;;;;170.47;62.77;;;;;;;0.90;77.66;100415.78;4942802;28;96950;-78
2023/12/08 08:43:05;;;;;;;176.07;64.70;;;;;;;1.04;76.97;100414.97;4974099;28;97219;-78
2023/12/08 08:45:30;;;;;;;163.43;54.70;;;;;;;1.05;76.41;100406.41;4935212;28;101357;-78
2023/12/08 08:47:56;;;;;;;175.93;64.40;;;;;;;0.96;76.85;100419.22;4953913;28;101322;-79
2023/12/08 08:50:22;;;;;;;154.80;58.23;;;;;;;1.12;76.69;100414.19;4950780;28;97457;-80
2023/12/08 08:52:47;;;;;;;148.83;54.20;;;;;;;1.17;76.89;100416.81;4954085;28;98256;-79
2023/12/08 08:55:13;;;;;;;144.53;54.10;;;;;;;1.08;76.27;100409.00;4954192;28;100323;-79
2023/12/08 08:57:38;;;;;;;152.27;57.07;;;;;;;1.13;76.30;100410.75;4953449;28;100833;-79
2023/12/08 09:00:05;;;;;;;143.93;52.83;;;;;;;0.99;76.30;100422.72;4974321;28;98055;-79
2023/12/08 09:02:30;;;;;;;142.50;52.07;;;;;;;0.90;77.34;100422.63;4968846;28;97242;-80
2023/12/08 09:04:56;;;;;;;151.40;53.20;;;;;;;0.92;77.26;100412.31;4971069;28;97489;-79
2023/12/08 09:07:22;;;;;;;145.40;52.60;;;;;;;0.96;76.85;100420.13;4940379;28;101256;-80
2023/12/08 09:09:48;;;;;;;156.93;53.10;;;;;;;0.88;76.98;100398.53;4952071;28;97474;-80
2023/12/08 09:12:13;;;;;;;157.27;55.73;;;;;;;0.80;77.47;100374.34;4958311;28;96944;-80
2023/12/08 09:14:39;;;;;;;141.80;53.07;;;;;;;0.73;78.11;100367.38;4954340;28;101056;-80
2023/12/08 09:17:05;;;;;;;163.43;56.37;;;;;;;0.67;77.85;100370.81;4938087;28;102018;-79
2023/12/08 09:19:32;;;;;;;165.70;54.97;;;;;;;0.71;78.02;100375.16;4968007;28;97172;-78
2023/12/08 09:21:57;;;;;;;157.17;54.53;;;;;;;0.74;78.39;100370.00;4939059;28;97602;-80
2023/12/08 09:24:25;;;;;;;168.90;60.17;;;;;;;0.79;78.14;100367.44;4936599;28;101313;-81
2023/12/08 09:26:52;;;;;;;172.60;61.23;;;;;;;0.84;78.05;100351.13;4938866;28;101666;-79
2023/12/08 09:29:18;;;;;;;168.03;59.17;;;;;;;0.70;77.93;100334.66;4955920;28;98098;-81
2023/12/08 09:31:43;;;;;;;178.77;57.33;;;;;;;0.81;78.18;100343.31;4968904;28;96807;-80
2023/12/08 09:34:09;;;;;;;169.77;57.77;;;;;;;0.78;78.25;100345.88;4952734;28;97597;-80
2023/12/08 09:36:35;;;;;;;174.27;60.67;;;;;;;0.87;78.33;100347.66;4935783;28;101532;-80
2023/12/08 09:39:03;;;;;;;173.83;58.67;;;;;;;0.95;77.93;100353.75;4958336;28;98034;-79
2023/12/08 09:41:30;;;;;;;176.50;57.30;;;;;;;0.98;77.78;100365.84;4953807;28;97535;-79
2023/12/08 09:44:13;;;;;;;169.10;55.00;;;;;;;1.01;77.79;100343.44;4978795;28;97744;-78
2023/12/08 09:46:43;;;;;;;176.57;61.03;;;;;;;1.10;77.48;100346.06;4976669;28;98579;-78
2023/12/08 09:49:19;;;;;;;162.77;56.47;;;;;;;1.01;77.70;100340.00;4967715;28;97278;-79
2023/12/08 09:51:45;;;;;;;168.10;57.80;;;;;;;1.16;77.50;100334.88;4982441;28;97262;-79
2023/12/08 09:54:11;;;;;;;158.10;54.30;;;;;;;1.15;77.13;100332.31;4958975;28;101212;-79
2023/12/08 09:56:36;;;;;;;168.97;55.53;;;;;;;1.30;76.90;100335.81;4961203;28;99949;-79
2023/12/08 09:59:03;;;;;;;174.17;59.83;;;;;;;1.38;76.80;100327.22;4978355;28;99348;-79
2023/12/08 10:01:28;;;;;;;143.63;53.47;;;;;;;1.38;76.59;100315.16;4950734;28;97766;-79
2023/12/08 10:03:54;;;;;;;149.13;55.70;;;;;;;1.33;75.93;100301.34;4978153;28;98522;-79
2023/12/08 10:06:20;;;;;;;130.00;49.47;;;;;;;1.41;75.75;100315.16;4972696;28;101171;-80
2023/12/08 10:08:46;;;;;;;143.73;50.60;;;;;;;1.25;76.15;100314.25;4963452;28;97235;-79
2023/12/08 10:11:11;;;;;;;145.27;56.93;;;;;;;1.32;76.36;100312.56;4942510;28;96946;-79
2023/12/08 10:13:37;;;;;;;129.60;49.53;;;;;;;1.38;75.91;100307.41;4969753;28;97496;-79
2023/12/08 10:16:03;;;;;;;116.33;45.23;;;;;;;1.13;76.07;100311.59;4967732;28;98049;-79
2023/12/08 10:18:28;;;;;;;107.13;41.33;;;;;;;1.11;75.61;100292.66;4960239;28;96830;-80
2023/12/08 10:21:16;;;;;;;110.20;45.23;;;;;;;1.26;75.20;100315.97;4957121;28;97625;-79
2023/12/08 10:23:43;;;;;;;108.00;43.10;;;;;;;1.28;75.70;100316.88;4938453;28;101165;-79
2023/12/08 10:26:09;;;;;;;111.57;47.43;;;;;;;1.26;75.71;100312.53;4987143;28;98159;-80
2023/12/08 10:28:35;;;;;;;118.50;50.33;;;;;;;1.24;75.43;100306.47;4958305;28;96864;-80
2023/12/08 10:31:01;;;;;;;125.10;52.10;;;;;;;1.41;75.16;100299.66;4963664;28;97288;-78
2023/12/08 10:33:27;;;;;;;118.63;46.80;;;;;;;1.24;74.90;100281.47;4949536;28;101428;-78
2023/12/08 10:35:52;;;;;;;130.13;50.33;;;;;;;1.25;75.40;100296.16;4945908;28;101395;-82
2023/12/08 10:38:19;;;;;;;139.47;51.60;;;;;;;1.13;76.09;100289.22;4952949;28;96919;-76
2023/12/08 10:40:46;;;;;;;130.97;51.80;;;;;;;0.99;76.05;100285.72;4961816;28;96857;-82
2023/12/08 10:43:20;;;;;;;130.00;48.70;;;;;;;1.04;76.27;100290.88;4951001;28;101073;-72
2023/12/08 10:45:45;;;;;;;129.13;50.90;;;;;;;1.06;76.32;100284.00;4978586;28;98019;-72
2023/12/08 10:48:11;;;;;;;142.47;53.40;;;;;;;0.99;75.94;100258.97;4958412;28;97156;-71
2023/12/08 10:50:38;;;;;;;139.10;55.90;;;;;;;1.08;76.61;100254.72;4954245;28;97010;-71
2023/12/08 10:53:05;;;;;;;142.93;54.33;;;;;;;1.20;76.18;100256.50;4958058;28;101779;-72
2023/12/08 10:55:30;;;;;;;140.90;52.63;;;;;;;1.18;76.53;100249.56;4937590;28;101178;-72
2023/12/08 10:57:56;;;;;;;135.40;56.37;;;;;;;1.20;76.07;100242.69;4972687;28;97109;-76
2023/12/08 11:00:24;;;;;;;138.83;52.13;;;;;;;1.30;75.60;100252.19;4964888;28;96841;-77
2023/12/08 11:02:49;;;;;;;125.67;48.40;;;;;;;1.17;75.47;100256.47;4965381;28;97465;-76